Terminal Aerodrome Forecast
Issued by NWS

Home | Current Version | Previous Version | Text Only | Print | Product List | Glossary On
Versions: 1 2 3 4 5 6 7 8 9 10 11 12 13 14 15 16
000
FTUS42 KMLB 010348 AAA
TAFTIX
TAF AMD
KTIX 010348Z 0104/0124 08010KT P6SM OVC100
     FM010800 07004KT 3SM BR OVC005
     FM011400 13006KT P6SM SCT006 BKN020
     FM011800 12008KT P6SM BKN035=

USA.gov is the U.S. government's official web portal to all federal, state and local government web resources and services.